Time;durP1;ratioP1;P1;durP2;ratioP2;P2;SDS_P1;SDS_P2;PMS_P1;PMS_P2;Temp;Humidity;BMP_temperature;BMP_pressure;BME280_temperature;BME280_humidity;BME280_pressure;Samples;Min_cycle;Max_cycle;Signal;HPM_P1;HPM_P2
2023/09/29 00:01:39;;;;;;;67.40;50.90;;;14.40;99.90;;;;;;4944472;28;20047;-75
2023/09/29 00:04:06;;;;;;;61.00;48.22;;;14.30;99.90;;;;;;4932478;28;20054;-75
2023/09/29 00:06:33;;;;;;;64.55;49.85;;;14.40;99.90;;;;;;4932758;28;20039;-76
2023/09/29 00:09:01;;;;;;;63.83;49.45;;;14.50;99.90;;;;;;4950344;28;20657;-76
2023/09/29 00:11:31;;;;;;;50.35;44.22;;;14.60;99.90;;;;;;4963217;28;20129;-75
2023/09/29 00:13:59;;;;;;;57.17;46.13;;;14.50;99.90;;;;;;4948370;28;20078;-76
2023/09/29 00:16:26;;;;;;;57.63;45.72;;;14.60;99.90;;;;;;4956025;28;20113;-76
2023/09/29 00:18:52;;;;;;;57.38;45.10;;;14.60;99.90;;;;;;4943259;28;20039;-76
2023/09/29 00:21:20;;;;;;;53.13;44.83;;;14.70;99.90;;;;;;4957485;28;20131;-75
2023/09/29 00:23:47;;;;;;;53.30;44.72;;;14.60;99.90;;;;;;4936303;28;20649;-76
2023/09/29 00:26:14;;;;;;;52.05;45.28;;;14.60;99.90;;;;;;4930925;28;20055;-76
2023/09/29 00:28:41;;;;;;;54.53;44.13;;;14.50;99.90;;;;;;4957729;28;20121;-76
2023/09/29 00:31:08;;;;;;;49.63;43.97;;;14.70;99.90;;;;;;4943149;28;20500;-76
2023/09/29 00:33:35;;;;;;;49.13;43.78;;;14.50;99.90;;;;;;4931940;28;21359;-76
2023/09/29 00:36:02;;;;;;;49.88;44.50;;;14.70;99.90;;;;;;4950890;28;20094;-76
2023/09/29 00:38:29;;;;;;;53.03;46.13;;;14.70;99.90;;;;;;4936959;28;20043;-76
2023/09/29 00:40:56;;;;;;;50.55;45.03;;;14.80;99.90;;;;;;4938935;28;20598;-76
2023/09/29 00:43:23;;;;;;;49.63;44.30;;;14.90;99.90;;;;;;4936324;28;21189;-75
2023/09/29 00:45:52;;;;;;;52.60;46.00;;;14.70;99.90;;;;;;4934903;28;20054;-74
2023/09/29 00:48:19;;;;;;;48.35;43.15;;;14.80;99.90;;;;;;4936545;28;20032;-75
2023/09/29 00:50:46;;;;;;;47.95;42.88;;;14.90;99.90;;;;;;4957589;28;20047;-75
2023/09/29 00:53:17;;;;;;;46.78;41.85;;;15.00;99.90;;;;;;4928065;28;20046;-75
2023/09/29 00:55:46;;;;;;;46.75;41.70;;;15.00;99.90;;;;;;4941553;28;20086;-74
2023/09/29 00:58:14;;;;;;;44.80;40.20;;;15.00;99.90;;;;;;4940320;28;20046;-74
2023/09/29 01:00:42;;;;;;;44.50;39.88;;;15.10;99.90;;;;;;4943147;28;20042;-75
2023/09/29 01:03:12;;;;;;;43.60;38.97;;;15.10;99.90;;;;;;4946364;28;20051;-75
2023/09/29 01:05:44;;;;;;;43.90;39.10;;;15.00;99.90;;;;;;4941890;28;20050;-74
2023/09/29 01:08:18;;;;;;;40.88;36.53;;;15.00;99.90;;;;;;4942765;28;20456;-75
2023/09/29 01:10:45;;;;;;;44.53;39.75;;;15.00;99.90;;;;;;4956007;28;20074;-74
2023/09/29 01:13:12;;;;;;;45.72;39.08;;;15.10;99.90;;;;;;4926240;28;20445;-75
2023/09/29 01:15:39;;;;;;;47.40;40.55;;;15.00;99.90;;;;;;4949439;28;20039;-74
2023/09/29 01:18:09;;;;;;;44.35;38.70;;;15.10;99.90;;;;;;4939742;28;20779;-73
2023/09/29 01:20:37;;;;;;;40.17;35.97;;;15.10;99.90;;;;;;4939869;28;20046;-76
2023/09/29 01:23:05;;;;;;;44.08;39.25;;;15.00;99.90;;;;;;4951084;28;20423;-76
2023/09/29 01:25:33;;;;;;;45.30;40.40;;;15.00;99.90;;;;;;4989076;28;20899;-75
2023/09/29 01:28:01;;;;;;;44.30;39.45;;;15.00;99.90;;;;;;4990407;28;20030;-73
2023/09/29 01:30:28;;;;;;;45.85;38.85;;;15.00;99.90;;;;;;4970881;28;20042;-72
2023/09/29 01:32:59;;;;;;;41.65;37.33;;;15.00;99.90;;;;;;4984309;28;20157;-75
2023/09/29 01:35:30;;;;;;;41.28;37.10;;;15.00;99.90;;;;;;4947806;28;20814;-76
2023/09/29 01:38:00;;;;;;;43.20;38.55;;;15.10;99.90;;;;;;4945061;28;20054;-75
2023/09/29 01:40:29;;;;;;;43.03;38.33;;;15.20;99.90;;;;;;4953858;28;20067;-75
2023/09/29 01:42:56;;;;;;;42.03;37.45;;;15.20;99.90;;;;;;4930433;28;20065;-75
2023/09/29 01:45:25;;;;;;;40.47;36.47;;;15.30;99.90;;;;;;4953537;28;20050;-74
2023/09/29 01:47:53;;;;;;;41.60;37.20;;;15.40;99.90;;;;;;4945821;28;20035;-75
2023/09/29 01:50:21;;;;;;;39.03;35.08;;;15.20;99.90;;;;;;4944366;28;20507;-73
2023/09/29 01:52:49;;;;;;;38.92;34.85;;;15.30;99.90;;;;;;4965792;28;20073;-73
2023/09/29 01:55:19;;;;;;;38.42;34.50;;;15.20;99.90;;;;;;4938998;28;20038;-75
2023/09/29 01:57:48;;;;;;;39.75;35.80;;;15.10;99.90;;;;;;4943340;28;20565;-74
2023/09/29 02:00:23;;;;;;;37.65;33.75;;;15.00;99.90;;;;;;4956044;28;20062;-75
2023/09/29 02:02:55;;;;;;;36.47;32.78;;;15.10;99.90;;;;;;4945030;28;20046;-74
2023/09/29 02:05:23;;;;;;;36.67;32.88;;;15.20;99.90;;;;;;4942372;28;20053;-75
2023/09/29 02:07:51;;;;;;;36.60;32.95;;;15.20;99.90;;;;;;4969586;28;20106;-74
2023/09/29 02:10:20;;;;;;;35.25;31.73;;;15.30;99.90;;;;;;4946538;28;20596;-75
2023/09/29 02:12:58;;;;;;;35.40;31.63;;;15.30;99.90;;;;;;4959240;28;20703;-75
2023/09/29 02:15:26;;;;;;;35.40;31.25;;;15.30;99.90;;;;;;4955192;28;20173;-74
2023/09/29 02:17:53;;;;;;;33.28;29.85;;;15.40;99.90;;;;;;4942311;28;20081;-76
2023/09/29 02:20:25;;;;;;;33.58;30.35;;;15.40;99.90;;;;;;4926603;28;20648;-75
2023/09/29 02:22:55;;;;;;;38.40;31.25;;;15.40;99.90;;;;;;4926807;28;20532;-74
2023/09/29 02:25:25;;;;;;;34.80;31.30;;;15.30;99.90;;;;;;4941727;28;20065;-75
2023/09/29 02:27:57;;;;;;;33.40;30.20;;;15.40;99.90;;;;;;4942427;28;20151;-75
2023/09/29 02:30:24;;;;;;;32.78;29.50;;;15.50;99.90;;;;;;4942411;28;20057;-75
2023/09/29 02:32:52;;;;;;;32.60;29.40;;;15.50;99.90;;;;;;4945101;28;20057;-75
2023/09/29 02:35:19;;;;;;;31.45;28.63;;;15.50;99.90;;;;;;4955177;28;20062;-76
2023/09/29 02:37:47;;;;;;;32.45;29.30;;;15.50;99.90;;;;;;4943836;28;20088;-75
2023/09/29 02:40:18;;;;;;;33.30;28.38;;;15.50;99.90;;;;;;4943343;28;20035;-75
2023/09/29 02:42:45;;;;;;;29.30;26.80;;;15.60;99.90;;;;;;4942602;28;20702;-75
2023/09/29 02:45:12;;;;;;;29.52;26.65;;;15.60;99.90;;;;;;4958750;28;20047;-75
2023/09/29 02:47:40;;;;;;;28.63;25.58;;;15.50;99.90;;;;;;4953436;28;20042;-75
2023/09/29 02:50:09;;;;;;;27.92;25.40;;;15.50;99.90;;;;;;4956928;28;20138;-75
2023/09/29 02:52:39;;;;;;;26.67;24.27;;;15.50;99.90;;;;;;4942971;28;20054;-76
2023/09/29 02:55:11;;;;;;;27.25;22.00;;;15.60;99.90;;;;;;4940148;28;20679;-76
2023/09/29 02:57:40;;;;;;;24.98;22.55;;;15.50;99.90;;;;;;4925458;28;20047;-76
2023/09/29 03:00:18;;;;;;;25.13;22.77;;;15.40;99.90;;;;;;4941441;28;20063;-75
2023/09/29 03:02:46;;;;;;;24.40;22.10;;;15.40;99.90;;;;;;4942646;28;20051;-76
2023/09/29 03:05:15;;;;;;;24.95;22.48;;;15.30;99.90;;;;;;4949361;28;20038;-75
2023/09/29 03:07:43;;;;;;;23.23;21.10;;;15.30;99.90;;;;;;4941563;28;20051;-76
2023/09/29 03:10:14;;;;;;;25.58;23.08;;;15.30;99.90;;;;;;4955429;28;20578;-76
2023/09/29 03:12:42;;;;;;;26.67;23.58;;;15.30;99.90;;;;;;4959849;28;20046;-76
2023/09/29 03:15:11;;;;;;;27.45;24.65;;;15.20;99.90;;;;;;4954207;28;20184;-74
2023/09/29 03:17:38;;;;;;;25.73;23.52;;;15.20;99.90;;;;;;4953149;28;20053;-75
2023/09/29 03:20:10;;;;;;;26.85;24.13;;;15.20;99.90;;;;;;4946883;28;20050;-76
2023/09/29 03:22:39;;;;;;;24.98;22.77;;;15.20;99.90;;;;;;4943976;28;20054;-74
2023/09/29 03:25:07;;;;;;;25.73;23.45;;;15.30;99.90;;;;;;4947525;28;20528;-75
2023/09/29 03:27:36;;;;;;;24.70;22.60;;;15.20;99.90;;;;;;4925723;28;20135;-76
2023/09/29 03:30:08;;;;;;;25.35;23.15;;;15.20;99.90;;;;;;4956616;28;20043;-77
2023/09/29 03:32:35;;;;;;;24.50;22.50;;;15.10;99.90;;;;;;4956040;28;20417;-76
2023/09/29 03:35:04;;;;;;;26.08;23.67;;;15.30;99.90;;;;;;4968620;28;20061;-77
2023/09/29 03:37:39;;;;;;;25.67;23.27;;;15.20;99.90;;;;;;4940571;28;20062;-76
2023/09/29 03:40:10;;;;;;;25.23;22.92;;;15.30;99.90;;;;;;4957817;28;20049;-77
2023/09/29 03:42:42;;;;;;;25.60;23.35;;;15.20;99.90;;;;;;4944932;28;20062;-77
2023/09/29 03:45:11;;;;;;;25.35;23.00;;;15.30;99.90;;;;;;4942874;28;20058;-75
2023/09/29 03:47:38;;;;;;;25.77;23.50;;;15.30;99.90;;;;;;4938872;28;20055;-77
2023/09/29 03:50:11;;;;;;;26.02;23.50;;;15.30;99.90;;;;;;4957718;28;20046;-76
2023/09/29 03:52:39;;;;;;;25.23;22.85;;;15.40;99.90;;;;;;4946502;28;20083;-75
2023/09/29 03:55:07;;;;;;;24.55;22.50;;;15.40;99.90;;;;;;4943408;28;20042;-76
2023/09/29 03:57:37;;;;;;;24.92;22.83;;;15.50;99.90;;;;;;4952653;28;20145;-75
2023/09/29 04:00:12;;;;;;;25.88;23.42;;;15.60;99.90;;;;;;4957342;28;20081;-77
2023/09/29 04:02:40;;;;;;;24.77;22.55;;;15.50;99.90;;;;;;4941699;28;20579;-76
2023/09/29 04:05:09;;;;;;;24.45;22.45;;;15.60;99.90;;;;;;4926287;28;20092;-76
2023/09/29 04:07:40;;;;;;;23.15;21.13;;;15.60;99.90;;;;;;4943921;28;20054;-76
2023/09/29 04:10:09;;;;;;;22.65;20.45;;;15.50;99.90;;;;;;4943951;28;20093;-76
2023/09/29 04:12:38;;;;;;;21.17;19.52;;;15.60;99.90;;;;;;4973625;28;20779;-77
2023/09/29 04:15:06;;;;;;;22.67;20.38;;;15.60;99.90;;;;;;4965425;28;20055;-74
2023/09/29 04:17:37;;;;;;;23.77;20.60;;;15.50;99.90;;;;;;4961120;28;20529;-75
2023/09/29 04:20:06;;;;;;;22.67;20.83;;;15.50;99.90;;;;;;4962821;28;20077;-75
2023/09/29 04:22:34;;;;;;;22.77;20.50;;;15.60;99.90;;;;;;4975083;28;20109;-75
2023/09/29 04:25:01;;;;;;;22.55;20.67;;;15.60;99.90;;;;;;4959950;28;20049;-75
2023/09/29 04:27:28;;;;;;;23.13;21.02;;;15.60;99.90;;;;;;4955205;28;20134;-75
2023/09/29 04:29:55;;;;;;;23.17;20.90;;;15.60;99.90;;;;;;4958174;28;20106;-75
2023/09/29 04:32:22;;;;;;;21.58;19.63;;;15.60;99.90;;;;;;4983615;28;20047;-76
2023/09/29 04:34:49;;;;;;;22.50;20.40;;;15.60;99.90;;;;;;4970529;28;20141;-75
2023/09/29 04:37:16;;;;;;;24.30;22.10;;;15.50;99.90;;;;;;4972203;28;20047;-76
2023/09/29 04:39:43;;;;;;;25.25;22.85;;;15.40;99.90;;;;;;4985882;28;20074;-76
2023/09/29 04:42:10;;;;;;;23.92;22.02;;;15.40;99.90;;;;;;4944290;28;20141;-76
2023/09/29 04:44:38;;;;;;;25.88;23.48;;;15.50;99.90;;;;;;4962037;28;20043;-75
2023/09/29 04:47:06;;;;;;;25.02;22.88;;;15.50;99.90;;;;;;4977787;28;20268;-75
2023/09/29 04:49:33;;;;;;;25.27;23.15;;;15.40;99.90;;;;;;4971042;28;21167;-77
2023/09/29 04:51:59;;;;;;;25.48;22.92;;;15.50;99.90;;;;;;4961366;28;20062;-75
2023/09/29 04:54:26;;;;;;;25.10;23.15;;;15.60;99.90;;;;;;4950745;28;20208;-75
2023/09/29 04:56:53;;;;;;;25.42;23.30;;;15.60;99.90;;;;;;4955817;28;20106;-74
2023/09/29 04:59:20;;;;;;;26.90;24.40;;;15.70;99.90;;;;;;4948478;28;20050;-76
2023/09/29 05:01:47;;;;;;;26.55;23.90;;;15.70;99.90;;;;;;4946288;28;20038;-77
2023/09/29 05:04:14;;;;;;;25.60;23.55;;;15.80;99.90;;;;;;4946860;28;20106;-76
2023/09/29 05:06:41;;;;;;;25.58;23.48;;;15.70;99.90;;;;;;4944525;28;20046;-77
2023/09/29 05:09:11;;;;;;;26.60;23.98;;;15.80;99.90;;;;;;4946363;28;20047;-75
2023/09/29 05:11:38;;;;;;;24.65;22.58;;;15.70;99.90;;;;;;4957663;28;20066;-75
2023/09/29 05:14:05;;;;;;;24.73;22.63;;;15.70;99.90;;;;;;4965757;28;20416;-75
2023/09/29 05:16:31;;;;;;;24.92;22.83;;;15.50;99.90;;;;;;4942792;28;20050;-75
2023/09/29 05:19:00;;;;;;;25.38;23.17;;;15.60;99.90;;;;;;4944893;28;20039;-75
2023/09/29 05:21:28;;;;;;;26.40;23.98;;;15.70;99.90;;;;;;4958855;28;20533;-75
2023/09/29 05:23:54;;;;;;;25.10;22.92;;;15.70;99.90;;;;;;4942727;28;20035;-75
2023/09/29 05:26:21;;;;;;;26.10;24.00;;;15.70;99.90;;;;;;4940601;28;20580;-74
2023/09/29 05:28:51;;;;;;;25.13;22.90;;;15.70;99.90;;;;;;4942190;28;20043;-75
2023/09/29 05:31:18;;;;;;;25.50;23.48;;;15.70;99.90;;;;;;4942510;28;20670;-75
2023/09/29 05:33:45;;;;;;;25.75;23.02;;;15.80;99.90;;;;;;4943908;28;20138;-75
2023/09/29 05:36:11;;;;;;;24.25;22.05;;;15.80;99.90;;;;;;4941340;28;20410;-75
2023/09/29 05:38:38;;;;;;;25.80;23.58;;;15.70;99.90;;;;;;4943954;28;20133;-75
2023/09/29 05:41:05;;;;;;;24.85;22.70;;;15.70;99.90;;;;;;4951311;28;20057;-74
2023/09/29 05:43:32;;;;;;;24.73;22.27;;;15.80;99.90;;;;;;5001303;28;20026;-73
2023/09/29 05:45:59;;;;;;;23.58;21.40;;;15.80;99.90;;;;;;4960990;28;20082;-73
2023/09/29 05:48:26;;;;;;;24.02;21.85;;;15.80;99.90;;;;;;4959312;28;20085;-74
2023/09/29 05:50:55;;;;;;;22.13;20.10;;;15.90;99.90;;;;;;4943716;28;20059;-74
2023/09/29 05:53:22;;;;;;;22.20;19.90;;;15.90;99.90;;;;;;4972121;28;20120;-74
2023/09/29 05:55:49;;;;;;;22.13;20.10;;;15.90;99.90;;;;;;4954386;28;20043;-77
2023/09/29 05:58:15;;;;;;;23.27;21.15;;;15.80;99.90;;;;;;4940773;28;20445;-75
2023/09/29 06:00:42;;;;;;;24.38;21.83;;;15.90;99.90;;;;;;4956377;28;20049;-75
2023/09/29 06:03:09;;;;;;;23.23;21.42;;;16.00;99.90;;;;;;4941146;28;20065;-75
2023/09/29 06:05:37;;;;;;;23.75;21.50;;;16.00;99.90;;;;;;4955054;28;20051;-75
2023/09/29 06:08:06;;;;;;;25.55;22.85;;;16.10;99.90;;;;;;4956676;28;20129;-76
2023/09/29 06:10:33;;;;;;;25.27;23.05;;;16.10;99.90;;;;;;4959992;28;20692;-74
2023/09/29 06:12:59;;;;;;;25.27;22.98;;;16.00;99.90;;;;;;4937898;28;20042;-75
2023/09/29 06:15:30;;;;;;;24.33;21.63;;;16.00;99.90;;;;;;4940495;28;20043;-75
2023/09/29 06:17:57;;;;;;;22.58;20.77;;;16.10;99.90;;;;;;4924632;28;20062;-74
2023/09/29 06:20:23;;;;;;;23.58;21.67;;;16.10;99.90;;;;;;4938584;28;21011;-75
2023/09/29 06:22:50;;;;;;;23.38;21.35;;;16.10;99.90;;;;;;4942510;28;20058;-74
2023/09/29 06:25:17;;;;;;;24.45;22.40;;;16.10;99.90;;;;;;4925673;28;20046;-76
2023/09/29 06:27:44;;;;;;;24.48;22.48;;;16.10;99.90;;;;;;4925617;28;20473;-75
2023/09/29 06:30:11;;;;;;;24.33;21.77;;;16.10;99.90;;;;;;4924986;28;20054;-75
2023/09/29 06:32:38;;;;;;;24.50;22.38;;;16.30;99.90;;;;;;4952767;28;20038;-73
2023/09/29 06:35:05;;;;;;;23.33;21.30;;;16.30;99.90;;;;;;4925163;28;20047;-74
2023/09/29 06:37:32;;;;;;;23.92;21.60;;;16.30;99.90;;;;;;4923790;28;20552;-74
2023/09/29 06:39:59;;;;;;;24.33;22.25;;;16.30;99.90;;;;;;4950235;28;20222;-73
2023/09/29 06:42:26;;;;;;;23.52;21.27;;;16.40;99.90;;;;;;4934783;28;20138;-74
2023/09/29 06:44:53;;;;;;;22.27;20.30;;;16.30;99.90;;;;;;4935774;28;20125;-72
2023/09/29 06:47:19;;;;;;;22.75;20.73;;;16.20;99.90;;;;;;4934343;28;20047;-73
2023/09/29 06:49:46;;;;;;;21.80;20.02;;;16.40;99.90;;;;;;4951998;28;20082;-73
2023/09/29 06:52:14;;;;;;;22.25;19.92;;;16.50;99.90;;;;;;4933124;28;20062;-73
2023/09/29 06:54:40;;;;;;;21.10;19.20;;;16.50;99.90;;;;;;4952320;28;20046;-72
2023/09/29 06:57:07;;;;;;;19.00;17.20;;;16.60;99.90;;;;;;4951520;28;20110;-73
2023/09/29 06:59:34;;;;;;;19.65;17.42;;;16.60;99.90;;;;;;4933482;28;20139;-74
2023/09/29 07:02:01;;;;;;;18.98;17.20;;;16.60;99.90;;;;;;4937181;28;20073;-74
2023/09/29 07:04:28;;;;;;;18.45;16.05;;;16.80;99.90;;;;;;4948806;28;20050;-75
2023/09/29 07:06:55;;;;;;;19.10;17.38;;;16.80;99.90;;;;;;4934767;28;20132;-75
2023/09/29 07:09:22;;;;;;;19.08;17.55;;;16.90;99.90;;;;;;4961523;28;20080;-74
2023/09/29 07:11:49;;;;;;;20.48;18.77;;;16.90;99.90;;;;;;4923262;28;20046;-75
2023/09/29 07:14:16;;;;;;;19.13;17.52;;;16.90;99.90;;;;;;4939057;28;20694;-74
2023/09/29 07:16:44;;;;;;;19.45;17.80;;;17.00;99.90;;;;;;4947552;28;20050;-75
2023/09/29 07:19:12;;;;;;;19.30;17.77;;;17.00;99.90;;;;;;4969974;28;20038;-75
2023/09/29 07:21:40;;;;;;;20.27;18.27;;;17.00;99.90;;;;;;4952880;28;20104;-75
2023/09/29 07:24:08;;;;;;;18.40;16.80;;;17.10;99.90;;;;;;4938127;28;20041;-75
2023/09/29 07:26:35;;;;;;;19.75;18.08;;;17.00;99.90;;;;;;4951279;28;20042;-73
2023/09/29 07:29:04;;;;;;;18.38;16.75;;;17.20;99.90;;;;;;4937151;28;20105;-73
2023/09/29 07:31:35;;;;;;;21.13;19.23;;;17.20;99.90;;;;;;4949526;28;20093;-74
2023/09/29 07:34:02;;;;;;;21.10;19.35;;;17.40;99.90;;;;;;4952114;28;20126;-74
2023/09/29 07:36:31;;;;;;;19.13;17.45;;;17.60;99.90;;;;;;4950712;28;20097;-75
2023/09/29 07:38:58;;;;;;;18.27;16.70;;;17.60;99.90;;;;;;4951667;28;20043;-74
2023/09/29 07:41:25;;;;;;;19.17;17.45;;;17.50;99.90;;;;;;4936716;28;20074;-75
2023/09/29 07:43:52;;;;;;;19.88;18.15;;;17.70;99.90;;;;;;4931645;28;20126;-74
2023/09/29 07:46:21;;;;;;;17.63;16.30;;;17.70;99.90;;;;;;4948894;28;20569;-75
2023/09/29 07:48:48;;;;;;;18.90;17.48;;;17.70;99.90;;;;;;4918553;28;20050;-73
2023/09/29 07:51:15;;;;;;;19.67;18.05;;;17.80;99.90;;;;;;4933303;28;20078;-75
2023/09/29 07:57:08;;;;;;;19.20;17.52;;;18.10;99.90;;;;;;4956138;28;20050;-81
2023/09/29 07:59:35;;;;;;;19.50;18.10;;;18.50;99.90;;;;;;4926812;28;20042;-80
2023/09/29 08:02:04;;;;;;;20.02;18.63;;;18.40;99.90;;;;;;4943194;28;20672;-81
2023/09/29 08:04:31;;;;;;;21.92;20.27;;;18.50;99.90;;;;;;4943207;28;20053;-80
2023/09/29 08:06:59;;;;;;;21.13;19.35;;;18.50;99.90;;;;;;4943202;28;20110;-80
2023/09/29 08:09:25;;;;;;;20.98;19.38;;;18.60;99.90;;;;;;4946477;28;20055;-81
2023/09/29 08:11:52;;;;;;;20.90;19.48;;;18.70;99.90;;;;;;4930531;28;20129;-81
2023/09/29 08:14:19;;;;;;;21.10;19.42;;;18.80;99.90;;;;;;4945928;28;20109;-80
2023/09/29 08:16:46;;;;;;;20.25;18.75;;;18.90;99.90;;;;;;4942593;28;20043;-80
2023/09/29 08:19:13;;;;;;;21.50;20.02;;;19.10;99.90;;;;;;4948152;28;20508;-81
2023/09/29 08:21:40;;;;;;;20.98;19.58;;;19.20;99.90;;;;;;4946639;28;20125;-80
2023/09/29 08:24:07;;;;;;;21.55;19.83;;;19.20;99.90;;;;;;4949816;28;20046;-80
2023/09/29 08:26:34;;;;;;;21.77;19.92;;;19.30;99.90;;;;;;4931830;28;20157;-81
2023/09/29 08:29:01;;;;;;;20.95;19.55;;;19.50;99.90;;;;;;4959736;28;20201;-80
2023/09/29 08:31:28;;;;;;;22.88;21.05;;;19.60;99.90;;;;;;4977475;28;20046;-80
2023/09/29 08:33:55;;;;;;;22.92;21.33;;;19.70;99.90;;;;;;4958019;28;20125;-81
2023/09/29 08:36:22;;;;;;;22.50;21.10;;;19.80;99.90;;;;;;4950144;28;20402;-81
2023/09/29 08:38:49;;;;;;;23.20;21.48;;;19.90;99.90;;;;;;4928835;28;20133;-80
2023/09/29 08:41:18;;;;;;;23.73;21.63;;;20.00;99.90;;;;;;4931528;28;20051;-81
2023/09/29 08:43:46;;;;;;;22.73;21.00;;;20.10;99.90;;;;;;4929774;28;20130;-81
2023/09/29 08:46:36;;;;;;;23.38;21.58;;;20.10;99.90;;;;;;4930827;28;20114;-81
2023/09/29 08:49:05;;;;;;;22.27;20.85;;;20.30;99.90;;;;;;4945533;28;20047;-81
2023/09/29 08:51:36;;;;;;;23.45;21.77;;;20.40;99.90;;;;;;4950276;28;20031;-81
2023/09/29 08:54:04;;;;;;;23.13;21.52;;;20.60;99.90;;;;;;4946731;28;20058;-81
2023/09/29 08:56:31;;;;;;;22.55;21.02;;;20.80;99.90;;;;;;4948840;28;21309;-80
2023/09/29 08:59:01;;;;;;;22.83;21.33;;;21.20;99.90;;;;;;4943989;28;20043;-79
2023/09/29 09:01:30;;;;;;;23.48;21.50;;;21.40;99.90;;;;;;4970784;28;20051;-80
2023/09/29 09:03:57;;;;;;;23.42;21.77;;;21.40;99.90;;;;;;4923479;28;20054;-79
2023/09/29 09:06:26;;;;;;;23.55;21.90;;;21.40;99.90;;;;;;4950353;28;20098;-80
2023/09/29 09:08:54;;;;;;;23.02;21.55;;;21.20;99.90;;;;;;4929592;28;21400;-79
2023/09/29 09:11:21;;;;;;;23.52;21.88;;;21.30;99.90;;;;;;4957367;28;20103;-80
2023/09/29 09:14:03;;;;;;;23.40;21.90;;;21.20;99.90;;;;;;4933015;28;20492;-80
2023/09/29 09:16:36;;;;;;;24.02;22.35;;;21.20;99.90;;;;;;4949894;28;20042;-81
2023/09/29 09:19:14;;;;;;;24.65;22.85;;;21.20;99.90;;;;;;4954111;28;20070;-79
2023/09/29 09:21:43;;;;;;;23.88;22.33;;;21.10;99.90;;;;;;4943236;28;20123;-80
2023/09/29 09:24:21;;;;;;;23.38;21.88;;;21.30;99.90;;;;;;4965548;28;20050;-80
2023/09/29 09:26:51;;;;;;;23.63;22.00;;;21.20;99.90;;;;;;4953988;28;20038;-80
2023/09/29 09:29:20;;;;;;;24.35;22.02;;;21.10;99.90;;;;;;4952434;28;20042;-80
2023/09/29 09:31:53;;;;;;;23.42;21.88;;;21.10;99.90;;;;;;4948013;28;20050;-79
2023/09/29 09:34:37;;;;;;;23.00;21.30;;;21.10;99.90;;;;;;4954382;28;20047;-79
2023/09/29 09:37:06;;;;;;;22.50;20.98;;;21.00;99.90;;;;;;4946446;28;20074;-80
2023/09/29 09:39:34;;;;;;;22.88;21.35;;;21.00;99.90;;;;;;4938750;28;20117;-80
2023/09/29 09:42:05;;;;;;;23.20;21.70;;;20.90;99.90;;;;;;4961944;28;20046;-80
2023/09/29 09:44:32;;;;;;;23.77;22.05;;;20.90;99.90;;;;;;4950379;28;20118;-79
2023/09/29 09:47:04;;;;;;;23.75;22.02;;;21.00;99.90;;;;;;4946681;28;20084;-81
2023/09/29 09:49:36;;;;;;;23.27;21.45;;;21.10;99.90;;;;;;4961443;28;20302;-79
2023/09/29 09:52:08;;;;;;;22.52;20.92;;;21.00;99.90;;;;;;4949384;28;20462;-80
2023/09/29 09:54:44;;;;;;;23.33;21.83;;;21.00;99.90;;;;;;4930806;28;20067;-80
2023/09/29 09:57:13;;;;;;;23.67;21.85;;;20.90;99.90;;;;;;4943609;28;20047;-80
2023/09/29 09:59:41;;;;;;;23.88;21.85;;;20.90;99.90;;;;;;4960066;28;20995;-81
2023/09/29 10:02:11;;;;;;;24.95;23.15;;;21.00;99.90;;;;;;4947329;28;20783;-80
2023/09/29 10:04:39;;;;;;;23.50;21.98;;;21.10;99.90;;;;;;4932711;28;20050;-80
2023/09/29 10:07:06;;;;;;;24.10;22.23;;;21.50;99.90;;;;;;4927417;28;20109;-81
2023/09/29 10:09:45;;;;;;;24.15;22.63;;;21.70;99.90;;;;;;4962067;28;20647;-80
2023/09/29 10:12:26;;;;;;;23.52;21.95;;;21.70;99.90;;;;;;4958928;28;20038;-81
2023/09/29 10:14:55;;;;;;;23.65;21.95;;;21.90;99.90;;;;;;4943488;28;20637;-79
2023/09/29 10:17:23;;;;;;;23.13;21.48;;;22.00;99.90;;;;;;4945218;28;20142;-81
2023/09/29 10:19:51;;;;;;;24.45;22.75;;;22.00;99.90;;;;;;4960923;28;20050;-79
2023/09/29 10:22:25;;;;;;;23.27;21.67;;;22.00;99.90;;;;;;4947841;28;20051;-81
2023/09/29 10:24:59;;;;;;;22.95;21.35;;;22.00;99.90;;;;;;4961036;28;20165;-80
2023/09/29 10:27:33;;;;;;;24.93;23.10;;;21.90;99.90;;;;;;4926809;28;20050;-79
2023/09/29 10:30:16;;;;;;;26.52;24.73;;;22.00;99.90;;;;;;4939635;28;20868;-78
2023/09/29 10:32:45;;;;;;;24.25;22.65;;;22.10;99.90;;;;;;4943037;28;20051;-78
2023/09/29 10:35:19;;;;;;;25.08;23.48;;;22.30;99.90;;;;;;4970928;28;20034;-78
2023/09/29 10:37:54;;;;;;;25.90;24.40;;;22.60;99.90;;;;;;4955378;28;20035;-77
2023/09/29 10:40:31;;;;;;;26.13;24.52;;;23.10;99.90;;;;;;4938257;28;20055;-76
2023/09/29 10:43:02;;;;;;;25.00;23.45;;;23.50;99.90;;;;;;4937340;28;20054;-77
2023/09/29 10:45:36;;;;;;;23.65;22.05;;;23.70;99.90;;;;;;4952185;28;20059;-77
2023/09/29 10:48:08;;;;;;;25.83;24.23;;;23.40;99.90;;;;;;4950669;28;20118;-77
2023/09/29 10:50:49;;;;;;;26.38;24.73;;;23.30;99.90;;;;;;4939512;28;20047;-77
2023/09/29 10:53:22;;;;;;;24.88;23.25;;;23.50;99.90;;;;;;4956475;28;20990;-77
2023/09/29 10:55:51;;;;;;;24.20;22.58;;;23.70;99.90;;;;;;4956552;28;20047;-76
2023/09/29 10:58:19;;;;;;;24.02;22.27;;;23.70;99.90;;;;;;4943793;28;20061;-75
2023/09/29 11:00:47;;;;;;;26.48;24.67;;;23.70;99.90;;;;;;4939925;28;20122;-76
2023/09/29 11:03:16;;;;;;;24.60;23.00;;;23.60;99.90;;;;;;4958107;28;20050;-76
2023/09/29 11:05:55;;;;;;;23.98;22.30;;;23.90;99.90;;;;;;4920615;28;20838;-76
2023/09/29 11:08:30;;;;;;;26.92;24.88;;;24.10;99.90;;;;;;4973399;28;20055;-75
2023/09/29 11:11:00;;;;;;;26.80;24.90;;;24.10;99.90;;;;;;4939427;28;20054;-75
2023/09/29 11:13:28;;;;;;;27.67;25.77;;;24.10;99.90;;;;;;4968188;28;20053;-75
2023/09/29 11:15:56;;;;;;;26.77;24.83;;;24.30;99.90;;;;;;4950339;28;20074;-75
2023/09/29 11:18:31;;;;;;;25.38;23.85;;;24.60;99.90;;;;;;4943860;28;20035;-75
2023/09/29 11:20:59;;;;;;;25.88;24.35;;;24.70;99.90;;;;;;4968403;28;20049;-74
2023/09/29 11:23:37;;;;;;;26.05;24.02;;;25.00;99.90;;;;;;4938912;28;20127;-75
2023/09/29 11:26:09;;;;;;;26.23;24.63;;;25.00;99.90;;;;;;4951342;28;20057;-76
2023/09/29 11:28:51;;;;;;;26.63;24.73;;;25.00;99.90;;;;;;4965113;28;20063;-76
2023/09/29 11:31:20;;;;;;;25.50;23.77;;;25.10;99.90;;;;;;4944892;28;20070;-76
2023/09/29 11:33:47;;;;;;;25.40;23.90;;;25.20;99.90;;;;;;4939471;28;20081;-76
2023/09/29 11:36:19;;;;;;;25.50;23.63;;;25.30;99.90;;;;;;4953595;28;20138;-77
2023/09/29 11:38:46;;;;;;;27.05;25.45;;;25.40;99.90;;;;;;4944169;28;20050;-76
2023/09/29 11:41:15;;;;;;;25.45;23.77;;;25.30;99.90;;;;;;4956265;28;20053;-76
2023/09/29 11:43:43;;;;;;;24.85;23.35;;;25.40;99.90;;;;;;4928697;28;20066;-75
2023/09/29 11:46:10;;;;;;;25.35;23.55;;;25.30;99.90;;;;;;4943159;28;20053;-79
2023/09/29 11:48:38;;;;;;;25.23;23.45;;;25.10;99.90;;;;;;4927007;28;20071;-78
2023/09/29 11:51:06;;;;;;;26.02;24.05;;;25.00;99.90;;;;;;4940494;28;20043;-77
2023/09/29 11:53:34;;;;;;;25.55;23.85;;;24.80;99.90;;;;;;4954559;28;20194;-75
2023/09/29 11:56:00;;;;;;;25.55;23.67;;;24.40;99.90;;;;;;4941946;28;20599;-75
2023/09/29 11:58:29;;;;;;;26.60;24.80;;;24.10;99.90;;;;;;4957662;28;20059;-77
2023/09/29 12:00:56;;;;;;;24.55;22.85;;;24.00;99.90;;;;;;4962632;28;20133;-77
2023/09/29 12:03:23;;;;;;;25.25;23.42;;;24.10;99.90;;;;;;4958747;28;20742;-76
2023/09/29 12:05:50;;;;;;;25.48;23.67;;;24.10;99.90;;;;;;4958377;28;20039;-77
2023/09/29 12:08:18;;;;;;;27.52;25.58;;;24.10;99.90;;;;;;4943526;28;20050;-77
2023/09/29 12:10:45;;;;;;;27.20;24.92;;;24.20;99.90;;;;;;4934580;28;20720;-77
2023/09/29 12:13:15;;;;;;;27.02;25.13;;;24.00;99.90;;;;;;4956856;28;20701;-77
2023/09/29 12:15:46;;;;;;;27.23;25.20;;;24.10;99.90;;;;;;4943744;28;20058;-78
2023/09/29 12:18:13;;;;;;;27.80;25.52;;;24.00;99.90;;;;;;4941125;28;20069;-78
2023/09/29 12:20:40;;;;;;;25.73;23.83;;;24.00;99.90;;;;;;4949428;28;20053;-77
2023/09/29 12:23:08;;;;;;;25.95;23.85;;;24.10;99.90;;;;;;4953839;28;20042;-77
2023/09/29 12:25:36;;;;;;;27.77;25.65;;;24.10;99.90;;;;;;4933451;28;20054;-77
2023/09/29 12:28:04;;;;;;;28.35;26.45;;;24.10;99.90;;;;;;4932645;28;20432;-77
2023/09/29 12:30:32;;;;;;;27.58;25.25;;;24.00;99.90;;;;;;4943695;28;20125;-77
2023/09/29 12:33:01;;;;;;;27.73;25.52;;;23.90;99.90;;;;;;4928153;28;20050;-78
2023/09/29 12:35:28;;;;;;;26.58;24.48;;;23.90;99.90;;;;;;4954291;28;20090;-77
2023/09/29 12:37:55;;;;;;;28.15;25.75;;;23.80;99.90;;;;;;4957626;28;20057;-76
2023/09/29 12:40:22;;;;;;;26.75;24.70;;;23.70;99.90;;;;;;4949173;28;20039;-77